createdAt,value
2018-08-31T00:03:59.915Z,8.8
2018-08-31T00:13:59.526Z,6.8
2018-08-31T00:23:59.309Z,7.9
2018-08-31T00:33:58.990Z,7.1
2018-08-31T00:43:58.659Z,6.8
2018-08-31T00:53:58.299Z,8
2018-08-31T01:03:57.930Z,7.8
2018-08-31T01:13:57.575Z,7.6
2018-08-31T01:23:58.251Z,8.1
2018-08-31T01:33:58.187Z,7.4
2018-08-31T01:43:57.766Z,8.4
2018-08-31T01:53:57.455Z,8.2
2018-08-31T02:03:57.136Z,7.6
2018-08-31T02:13:57.017Z,7
2018-08-31T02:23:56.633Z,8.5
2018-08-31T02:33:56.253Z,6.8
2018-08-31T02:43:57.218Z,8.5
2018-08-31T02:53:57.184Z,6.8
2018-08-31T03:03:56.827Z,8
2018-08-31T03:13:57.160Z,7.2
2018-08-31T03:23:58.312Z,9
2018-08-31T03:33:58.105Z,8.7
2018-08-31T03:43:57.894Z,6.9
2018-08-31T03:53:57.570Z,10.2
2018-08-31T04:03:57.368Z,8.2
2018-08-31T04:13:57.094Z,9.9
2018-08-31T04:23:56.764Z,8.9
2018-08-31T04:33:56.810Z,9.1
2018-08-31T04:43:57.512Z,8.3
2018-08-31T04:53:58.112Z,10
2018-08-31T05:03:57.807Z,11.7
2018-08-31T05:13:57.538Z,12
2018-08-31T05:23:57.575Z,7.2
2018-08-31T05:33:58.266Z,7.5
2018-08-31T05:43:57.972Z,7.2
2018-08-31T05:54:00.775Z,7.4
2018-08-31T06:04:00.396Z,8.6
2018-08-31T06:14:00.038Z,8.3
2018-08-31T06:23:59.813Z,9.3
2018-08-31T06:34:00.146Z,10.8
2018-08-31T06:43:59.885Z,12.4
2018-08-31T06:54:00.734Z,9.3
2018-08-31T07:04:00.470Z,10.8
2018-08-31T07:14:00.940Z,9.8
2018-08-31T07:24:01.260Z,11.8
2018-08-31T07:34:02.899Z,13.9
2018-08-31T07:44:03.014Z,7.6
2018-08-31T07:54:03.396Z,9.1
2018-08-31T08:04:03.141Z,10.4
2018-08-31T08:14:04.201Z,8.1
2018-08-31T08:24:04.462Z,10.2
2018-08-31T08:34:04.126Z,9.8
2018-08-31T08:44:04.645Z,7.3
2018-08-31T08:54:06.973Z,7.7
2018-08-31T09:04:06.740Z,8.5
2018-08-31T09:14:23.542Z,6.9
2018-08-31T09:24:40.436Z,6.4
2018-08-31T09:34:48.860Z,5.9
2018-08-31T09:45:08.415Z,6.7
2018-08-31T09:55:15.312Z,6.9
2018-08-31T10:05:19.189Z,6.2
2018-08-31T10:15:47.091Z,8.4
2018-08-31T10:25:53.089Z,12.6
2018-08-31T10:35:53.293Z,10.3
2018-08-31T10:45:59.095Z,10.8
2018-08-31T10:56:02.553Z,13.8
2018-08-31T11:06:16.239Z,12.9
2018-08-31T11:16:24.931Z,11.1
2018-08-31T11:26:27.035Z,14.1
2018-08-31T11:36:27.830Z,10.8
2018-08-31T11:46:31.542Z,9.8
2018-08-31T11:56:38.698Z,11.2
2018-08-31T12:06:40.118Z,12
2018-08-31T12:16:40.083Z,10.2
2018-08-31T12:26:42.899Z,8.9
2018-08-31T12:36:43.332Z,12.2
2018-08-31T12:46:43.576Z,8.5
2018-08-31T12:56:44.818Z,10.4
2018-08-31T13:06:46.749Z,7.6
2018-08-31T13:16:46.472Z,8.9
2018-08-31T13:26:47.138Z,9.5
2018-08-31T13:36:54.569Z,9.8
2018-08-31T13:46:56.394Z,12.3
2018-08-31T13:56:56.518Z,9.1
2018-08-31T14:07:00.478Z,10
2018-08-31T14:17:00.431Z,9.4
2018-08-31T14:27:04.052Z,9.2
2018-08-31T14:37:05.752Z,8
2018-08-31T14:47:06.280Z,9.3
2018-08-31T14:57:11.121Z,12.3
2018-08-31T15:07:12.453Z,9.1
2018-08-31T15:17:12.664Z,9.3
2018-08-31T15:27:13.932Z,9.5
2018-08-31T15:37:15.022Z,7.3
2018-08-31T15:47:15.735Z,9.3
2018-08-31T15:57:19.510Z,11.1
2018-08-31T16:07:19.291Z,10.3
2018-08-31T16:17:21.209Z,7.8
2018-08-31T16:27:21.659Z,9.6
2018-08-31T16:37:21.909Z,8.9
2018-08-31T16:47:22.277Z,11.3
2018-08-31T16:57:22.461Z,9.5
2018-08-31T17:07:22.209Z,9.9
2018-08-31T17:17:23.712Z,11.8
2018-08-31T17:27:23.543Z,11.4
2018-08-31T17:37:24.919Z,8.8
2018-08-31T17:47:25.127Z,10.1
2018-08-31T17:57:25.677Z,10.4
2018-08-31T18:07:27.203Z,14.7
2018-08-31T18:17:33.181Z,12.8
2018-08-31T18:27:34.802Z,14
2018-08-31T18:37:40.876Z,12.2
2018-08-31T18:47:43.013Z,12.1
2018-08-31T18:57:49.918Z,15.3
2018-08-31T19:07:50.433Z,13.3
2018-08-31T19:17:50.575Z,14.2
2018-08-31T19:27:50.390Z,15.2
2018-08-31T19:37:52.482Z,12.4
2018-08-31T19:47:52.278Z,13.9
2018-08-31T19:57:52.136Z,15.1
2018-08-31T20:07:52.500Z,15.4
2018-08-31T20:17:56.705Z,14.5
2018-08-31T20:27:56.464Z,14.7
2018-08-31T20:37:56.226Z,15.1
2018-08-31T20:47:56.940Z,15.9
2018-08-31T20:57:56.560Z,17.8
2018-08-31T21:07:57.059Z,21.4
2018-08-31T21:17:59.312Z,17.3
2018-08-31T21:28:02.066Z,13.8
2018-08-31T21:38:02.810Z,12.5
2018-08-31T21:48:03.352Z,13.2
2018-08-31T21:58:05.442Z,10.6
2018-08-31T22:08:05.760Z,11.3
2018-08-31T22:18:06.970Z,13
2018-08-31T22:28:07.477Z,13.1
2018-08-31T22:38:07.538Z,11.9
2018-08-31T22:48:08.569Z,13.5
2018-08-31T22:58:09.389Z,13.6
2018-08-31T23:08:12.559Z,13.4
2018-08-31T23:18:14.048Z,12.3
2018-08-31T23:28:19.628Z,11.8
2018-08-31T23:38:19.729Z,12.9
2018-08-31T23:48:25.018Z,13.8
2018-08-31T23:58:30.025Z,12.5
